sensor_id;sensor_type;location;lat;lon;timestamp;P1;durP1;ratioP1;P2;durP2;ratioP2
27539;SDS011;15906;52.046;4.724;2022-07-21T00:01:39;12.88;;;9.48;;
27539;SDS011;15906;52.046;4.724;2022-07-21T00:04:21;12.13;;;8.82;;
27539;SDS011;15906;52.046;4.724;2022-07-21T00:06:48;12.68;;;9.10;;
27539;SDS011;15906;52.046;4.724;2022-07-21T00:09:19;12.65;;;9.05;;
27539;SDS011;15906;52.046;4.724;2022-07-21T00:11:45;11.52;;;9.63;;
27539;SDS011;15906;52.046;4.724;2022-07-21T00:14:13;13.90;;;9.75;;
27539;SDS011;15906;52.046;4.724;2022-07-21T00:16:41;13.07;;;9.13;;
27539;SDS011;15906;52.046;4.724;2022-07-21T00:19:09;15.32;;;10.70;;
27539;SDS011;15906;52.046;4.724;2022-07-21T00:21:57;13.05;;;10.75;;
27539;SDS011;15906;52.046;4.724;2022-07-21T00:24:38;14.25;;;10.75;;
27539;SDS011;15906;52.046;4.724;2022-07-21T00:27:04;15.85;;;11.57;;
27539;SDS011;15906;52.046;4.724;2022-07-21T00:29:31;15.02;;;12.30;;
27539;SDS011;15906;52.046;4.724;2022-07-21T00:32:04;17.40;;;12.05;;
27539;SDS011;15906;52.046;4.724;2022-07-21T00:34:33;14.93;;;11.10;;
27539;SDS011;15906;52.046;4.724;2022-07-21T00:37:19;17.77;;;12.40;;
27539;SDS011;15906;52.046;4.724;2022-07-21T00:39:52;20.83;;;12.93;;
27539;SDS011;15906;52.046;4.724;2022-07-21T00:42:29;15.77;;;11.57;;
27539;SDS011;15906;52.046;4.724;2022-07-21T00:45:13;18.92;;;12.50;;
27539;SDS011;15906;52.046;4.724;2022-07-21T00:47:40;15.55;;;11.82;;
27539;SDS011;15906;52.046;4.724;2022-07-21T00:50:08;17.75;;;12.80;;
27539;SDS011;15906;52.046;4.724;2022-07-21T00:52:48;17.13;;;12.93;;
27539;SDS011;15906;52.046;4.724;2022-07-21T00:55:17;17.77;;;13.30;;
27539;SDS011;15906;52.046;4.724;2022-07-21T00:58:05;20.13;;;13.57;;
27539;SDS011;15906;52.046;4.724;2022-07-21T01:00:31;17.25;;;13.00;;
27539;SDS011;15906;52.046;4.724;2022-07-21T01:02:57;17.70;;;11.98;;
27539;SDS011;15906;52.046;4.724;2022-07-21T01:05:24;18.17;;;13.23;;
27539;SDS011;15906;52.046;4.724;2022-07-21T01:07:51;20.25;;;12.43;;
27539;SDS011;15906;52.046;4.724;2022-07-21T01:10:19;20.40;;;13.63;;
27539;SDS011;15906;52.046;4.724;2022-07-21T01:12:46;18.73;;;13.27;;
27539;SDS011;15906;52.046;4.724;2022-07-21T01:15:13;18.02;;;13.57;;
27539;SDS011;15906;52.046;4.724;2022-07-21T01:17:40;20.17;;;13.93;;
27539;SDS011;15906;52.046;4.724;2022-07-21T01:20:09;16.58;;;13.07;;
27539;SDS011;15906;52.046;4.724;2022-07-21T01:22:37;17.40;;;13.55;;
27539;SDS011;15906;52.046;4.724;2022-07-21T01:25:04;19.20;;;13.02;;
27539;SDS011;15906;52.046;4.724;2022-07-21T01:27:31;17.25;;;13.43;;
27539;SDS011;15906;52.046;4.724;2022-07-21T01:29:57;15.68;;;12.73;;
27539;SDS011;15906;52.046;4.724;2022-07-21T01:32:24;19.95;;;13.82;;
27539;SDS011;15906;52.046;4.724;2022-07-21T01:34:50;18.95;;;13.80;;
27539;SDS011;15906;52.046;4.724;2022-07-21T01:37:19;18.08;;;12.80;;
27539;SDS011;15906;52.046;4.724;2022-07-21T01:39:46;18.20;;;13.00;;
27539;SDS011;15906;52.046;4.724;2022-07-21T01:42:31;16.27;;;12.80;;
27539;SDS011;15906;52.046;4.724;2022-07-21T01:44:57;17.95;;;14.30;;
27539;SDS011;15906;52.046;4.724;2022-07-21T01:47:23;21.55;;;14.77;;
27539;SDS011;15906;52.046;4.724;2022-07-21T01:49:49;16.85;;;12.82;;
27539;SDS011;15906;52.046;4.724;2022-07-21T01:52:15;22.02;;;15.57;;
27539;SDS011;15906;52.046;4.724;2022-07-21T01:54:40;20.30;;;14.95;;
27539;SDS011;15906;52.046;4.724;2022-07-21T01:57:06;20.85;;;14.00;;
27539;SDS011;15906;52.046;4.724;2022-07-21T01:59:31;20.10;;;15.27;;
27539;SDS011;15906;52.046;4.724;2022-07-21T02:01:57;22.80;;;16.20;;
27539;SDS011;15906;52.046;4.724;2022-07-21T02:04:23;24.23;;;15.77;;
27539;SDS011;15906;52.046;4.724;2022-07-21T02:06:48;21.73;;;16.15;;
27539;SDS011;15906;52.046;4.724;2022-07-21T02:09:14;20.25;;;16.13;;
27539;SDS011;15906;52.046;4.724;2022-07-21T02:11:40;22.23;;;16.38;;
27539;SDS011;15906;52.046;4.724;2022-07-21T02:14:05;19.92;;;14.75;;
27539;SDS011;15906;52.046;4.724;2022-07-21T02:16:31;22.52;;;15.57;;
27539;SDS011;15906;52.046;4.724;2022-07-21T02:18:57;23.45;;;16.75;;
27539;SDS011;15906;52.046;4.724;2022-07-21T02:21:23;25.10;;;17.98;;
27539;SDS011;15906;52.046;4.724;2022-07-21T02:23:48;25.95;;;18.05;;
27539;SDS011;15906;52.046;4.724;2022-07-21T02:26:14;24.42;;;17.23;;
27539;SDS011;15906;52.046;4.724;2022-07-21T02:28:40;23.23;;;16.80;;
27539;SDS011;15906;52.046;4.724;2022-07-21T02:31:06;25.10;;;17.92;;
27539;SDS011;15906;52.046;4.724;2022-07-21T02:33:32;23.27;;;17.17;;
27539;SDS011;15906;52.046;4.724;2022-07-21T02:35:58;22.65;;;17.00;;
27539;SDS011;15906;52.046;4.724;2022-07-21T02:38:24;21.77;;;15.80;;
27539;SDS011;15906;52.046;4.724;2022-07-21T02:40:50;26.20;;;17.15;;
27539;SDS011;15906;52.046;4.724;2022-07-21T02:43:15;24.42;;;16.55;;
27539;SDS011;15906;52.046;4.724;2022-07-21T02:45:41;25.25;;;17.58;;
27539;SDS011;15906;52.046;4.724;2022-07-21T02:48:09;23.80;;;17.02;;
27539;SDS011;15906;52.046;4.724;2022-07-21T02:50:39;25.60;;;16.50;;
27539;SDS011;15906;52.046;4.724;2022-07-21T02:53:07;22.75;;;16.77;;
27539;SDS011;15906;52.046;4.724;2022-07-21T02:55:38;24.83;;;17.67;;
27539;SDS011;15906;52.046;4.724;2022-07-21T03:00:32;23.38;;;17.23;;
27539;SDS011;15906;52.046;4.724;2022-07-21T03:02:59;26.02;;;17.58;;
27539;SDS011;15906;52.046;4.724;2022-07-21T03:05:24;26.67;;;17.55;;
27539;SDS011;15906;52.046;4.724;2022-07-21T03:07:50;26.48;;;17.67;;
27539;SDS011;15906;52.046;4.724;2022-07-21T03:10:15;25.15;;;18.92;;
27539;SDS011;15906;52.046;4.724;2022-07-21T03:12:41;26.13;;;17.52;;
27539;SDS011;15906;52.046;4.724;2022-07-21T03:15:06;26.77;;;18.05;;
27539;SDS011;15906;52.046;4.724;2022-07-21T03:17:32;21.98;;;16.77;;
27539;SDS011;15906;52.046;4.724;2022-07-21T03:19:58;20.60;;;15.82;;
27539;SDS011;15906;52.046;4.724;2022-07-21T03:22:23;24.58;;;17.98;;
27539;SDS011;15906;52.046;4.724;2022-07-21T03:24:49;23.10;;;16.65;;
27539;SDS011;15906;52.046;4.724;2022-07-21T03:27:16;25.98;;;17.35;;
27539;SDS011;15906;52.046;4.724;2022-07-21T03:29:42;23.38;;;17.80;;
27539;SDS011;15906;52.046;4.724;2022-07-21T03:32:07;24.85;;;18.00;;
27539;SDS011;15906;52.046;4.724;2022-07-21T03:34:33;32.67;;;19.65;;
27539;SDS011;15906;52.046;4.724;2022-07-21T03:36:58;26.85;;;17.55;;
27539;SDS011;15906;52.046;4.724;2022-07-21T03:39:24;26.95;;;18.05;;
27539;SDS011;15906;52.046;4.724;2022-07-21T03:41:49;28.75;;;19.77;;
27539;SDS011;15906;52.046;4.724;2022-07-21T03:44:15;30.38;;;18.83;;
27539;SDS011;15906;52.046;4.724;2022-07-21T03:46:40;27.35;;;19.33;;
27539;SDS011;15906;52.046;4.724;2022-07-21T03:49:06;26.23;;;19.50;;
27539;SDS011;15906;52.046;4.724;2022-07-21T03:51:31;30.95;;;20.75;;
27539;SDS011;15906;52.046;4.724;2022-07-21T03:53:57;32.33;;;20.30;;
27539;SDS011;15906;52.046;4.724;2022-07-21T03:56:24;28.25;;;20.02;;
27539;SDS011;15906;52.046;4.724;2022-07-21T03:58:49;29.77;;;19.88;;
27539;SDS011;15906;52.046;4.724;2022-07-21T04:01:15;28.65;;;19.45;;
27539;SDS011;15906;52.046;4.724;2022-07-21T04:03:40;27.65;;;19.67;;
27539;SDS011;15906;52.046;4.724;2022-07-21T04:06:06;30.27;;;19.88;;
27539;SDS011;15906;52.046;4.724;2022-07-21T04:08:35;31.48;;;20.73;;
27539;SDS011;15906;52.046;4.724;2022-07-21T04:11:01;28.58;;;19.13;;
27539;SDS011;15906;52.046;4.724;2022-07-21T04:13:26;29.42;;;20.63;;
27539;SDS011;15906;52.046;4.724;2022-07-21T04:15:52;29.00;;;20.02;;
27539;SDS011;15906;52.046;4.724;2022-07-21T04:18:17;31.40;;;21.02;;
27539;SDS011;15906;52.046;4.724;2022-07-21T04:20:43;30.55;;;21.25;;
27539;SDS011;15906;52.046;4.724;2022-07-21T04:23:08;35.08;;;20.83;;
27539;SDS011;15906;52.046;4.724;2022-07-21T04:25:34;31.08;;;20.45;;
27539;SDS011;15906;52.046;4.724;2022-07-21T04:28:00;27.50;;;20.60;;
27539;SDS011;15906;52.046;4.724;2022-07-21T04:30:26;33.63;;;21.60;;
27539;SDS011;15906;52.046;4.724;2022-07-21T04:32:52;33.15;;;21.10;;
27539;SDS011;15906;52.046;4.724;2022-07-21T04:35:18;29.73;;;21.67;;
27539;SDS011;15906;52.046;4.724;2022-07-21T04:51:06;33.50;;;21.45;;
27539;SDS011;15906;52.046;4.724;2022-07-21T04:53:31;31.20;;;20.52;;
27539;SDS011;15906;52.046;4.724;2022-07-21T04:55:57;32.42;;;20.48;;
27539;SDS011;15906;52.046;4.724;2022-07-21T04:58:23;31.77;;;20.63;;
27539;SDS011;15906;52.046;4.724;2022-07-21T05:00:48;38.00;;;20.60;;
27539;SDS011;15906;52.046;4.724;2022-07-21T05:03:14;33.88;;;20.92;;
27539;SDS011;15906;52.046;4.724;2022-07-21T05:05:39;28.65;;;20.30;;
27539;SDS011;15906;52.046;4.724;2022-07-21T05:08:05;30.33;;;19.40;;
27539;SDS011;15906;52.046;4.724;2022-07-21T05:10:31;32.60;;;19.77;;
27539;SDS011;15906;52.046;4.724;2022-07-21T05:12:56;31.50;;;18.75;;
27539;SDS011;15906;52.046;4.724;2022-07-21T05:15:22;33.65;;;19.55;;
27539;SDS011;15906;52.046;4.724;2022-07-21T05:17:47;34.88;;;21.30;;
27539;SDS011;15906;52.046;4.724;2022-07-21T05:20:13;32.38;;;20.25;;
27539;SDS011;15906;52.046;4.724;2022-07-21T05:22:38;32.33;;;19.90;;
27539;SDS011;15906;52.046;4.724;2022-07-21T05:25:05;30.67;;;19.38;;
27539;SDS011;15906;52.046;4.724;2022-07-21T05:27:31;30.88;;;19.95;;
27539;SDS011;15906;52.046;4.724;2022-07-21T05:29:57;33.65;;;19.90;;
27539;SDS011;15906;52.046;4.724;2022-07-21T05:32:23;34.17;;;20.33;;
27539;SDS011;15906;52.046;4.724;2022-07-21T05:34:48;30.10;;;19.52;;
27539;SDS011;15906;52.046;4.724;2022-07-21T05:37:14;31.08;;;19.42;;
27539;SDS011;15906;52.046;4.724;2022-07-21T05:39:39;32.15;;;19.98;;
27539;SDS011;15906;52.046;4.724;2022-07-21T05:42:05;35.83;;;20.42;;
27539;SDS011;15906;52.046;4.724;2022-07-21T05:44:30;32.00;;;20.20;;
27539;SDS011;15906;52.046;4.724;2022-07-21T05:46:56;29.20;;;18.52;;
27539;SDS011;15906;52.046;4.724;2022-07-21T05:49:22;28.77;;;20.05;;
27539;SDS011;15906;52.046;4.724;2022-07-21T05:51:48;28.83;;;19.95;;
27539;SDS011;15906;52.046;4.724;2022-07-21T05:54:13;39.22;;;21.13;;
27539;SDS011;15906;52.046;4.724;2022-07-21T05:56:39;36.28;;;21.58;;
27539;SDS011;15906;52.046;4.724;2022-07-21T05:59:04;37.05;;;21.42;;
27539;SDS011;15906;52.046;4.724;2022-07-21T06:01:30;33.95;;;20.83;;
27539;SDS011;15906;52.046;4.724;2022-07-21T06:03:55;33.60;;;21.25;;
27539;SDS011;15906;52.046;4.724;2022-07-21T06:06:21;39.33;;;21.60;;
27539;SDS011;15906;52.046;4.724;2022-07-21T06:08:48;33.85;;;23.20;;
27539;SDS011;15906;52.046;4.724;2022-07-21T06:11:16;38.20;;;23.30;;
27539;SDS011;15906;52.046;4.724;2022-07-21T06:13:43;36.97;;;22.20;;
27539;SDS011;15906;52.046;4.724;2022-07-21T06:16:09;38.13;;;22.33;;
27539;SDS011;15906;52.046;4.724;2022-07-21T06:18:35;38.33;;;20.67;;
27539;SDS011;15906;52.046;4.724;2022-07-21T06:21:01;36.97;;;22.95;;
27539;SDS011;15906;52.046;4.724;2022-07-21T06:23:27;39.85;;;23.65;;
27539;SDS011;15906;52.046;4.724;2022-07-21T06:25:53;45.85;;;25.60;;
27539;SDS011;15906;52.046;4.724;2022-07-21T06:28:19;43.75;;;25.85;;
27539;SDS011;15906;52.046;4.724;2022-07-21T06:30:45;47.17;;;26.42;;
27539;SDS011;15906;52.046;4.724;2022-07-21T06:33:11;49.85;;;28.73;;
27539;SDS011;15906;52.046;4.724;2022-07-21T06:35:37;79.40;;;37.67;;
27539;SDS011;15906;52.046;4.724;2022-07-21T06:38:03;64.47;;;32.30;;
27539;SDS011;15906;52.046;4.724;2022-07-21T06:40:29;71.03;;;35.45;;
27539;SDS011;15906;52.046;4.724;2022-07-21T06:42:54;56.50;;;29.77;;
27539;SDS011;15906;52.046;4.724;2022-07-21T06:45:20;56.40;;;29.90;;
27539;SDS011;15906;52.046;4.724;2022-07-21T06:47:46;48.03;;;25.00;;
27539;SDS011;15906;52.046;4.724;2022-07-21T06:50:12;34.03;;;19.50;;
27539;SDS011;15906;52.046;4.724;2022-07-21T06:52:38;32.92;;;19.10;;
27539;SDS011;15906;52.046;4.724;2022-07-21T06:55:04;28.30;;;17.17;;
27539;SDS011;15906;52.046;4.724;2022-07-21T06:57:32;30.20;;;17.77;;
27539;SDS011;15906;52.046;4.724;2022-07-21T06:59:59;31.50;;;19.30;;
27539;SDS011;15906;52.046;4.724;2022-07-21T07:02:25;30.70;;;17.38;;
27539;SDS011;15906;52.046;4.724;2022-07-21T07:04:50;34.22;;;17.95;;
27539;SDS011;15906;52.046;4.724;2022-07-21T07:07:16;29.80;;;17.73;;
27539;SDS011;15906;52.046;4.724;2022-07-21T07:09:41;36.28;;;18.35;;
27539;SDS011;15906;52.046;4.724;2022-07-21T07:12:07;23.65;;;15.35;;
27539;SDS011;15906;52.046;4.724;2022-07-21T07:14:34;25.17;;;15.10;;
27539;SDS011;15906;52.046;4.724;2022-07-21T07:17:01;27.73;;;14.25;;
27539;SDS011;15906;52.046;4.724;2022-07-21T07:19:27;28.58;;;14.07;;
27539;SDS011;15906;52.046;4.724;2022-07-21T07:21:53;25.65;;;14.23;;
27539;SDS011;15906;52.046;4.724;2022-07-21T07:24:19;17.63;;;13.23;;
27539;SDS011;15906;52.046;4.724;2022-07-21T07:26:45;22.00;;;12.68;;
27539;SDS011;15906;52.046;4.724;2022-07-21T07:29:11;22.58;;;13.73;;
27539;SDS011;15906;52.046;4.724;2022-07-21T07:31:37;18.40;;;12.43;;
27539;SDS011;15906;52.046;4.724;2022-07-21T07:34:02;16.13;;;10.68;;
27539;SDS011;15906;52.046;4.724;2022-07-21T07:36:28;13.90;;;10.52;;
27539;SDS011;15906;52.046;4.724;2022-07-21T07:38:55;16.52;;;10.35;;
27539;SDS011;15906;52.046;4.724;2022-07-21T07:41:22;15.82;;;9.90;;
27539;SDS011;15906;52.046;4.724;2022-07-21T07:43:48;13.45;;;9.40;;
27539;SDS011;15906;52.046;4.724;2022-07-21T07:46:16;11.48;;;8.15;;
27539;SDS011;15906;52.046;4.724;2022-07-21T07:48:42;10.27;;;7.97;;
27539;SDS011;15906;52.046;4.724;2022-07-21T07:51:09;12.57;;;8.00;;
27539;SDS011;15906;52.046;4.724;2022-07-21T07:53:35;10.38;;;6.90;;
27539;SDS011;15906;52.046;4.724;2022-07-21T07:56:01;10.73;;;7.35;;
27539;SDS011;15906;52.046;4.724;2022-07-21T07:58:27;12.00;;;7.10;;
27539;SDS011;15906;52.046;4.724;2022-07-21T08:00:53;10.82;;;6.88;;
27539;SDS011;15906;52.046;4.724;2022-07-21T08:03:19;11.35;;;7.32;;
27539;SDS011;15906;52.046;4.724;2022-07-21T08:05:46;12.23;;;7.43;;
27539;SDS011;15906;52.046;4.724;2022-07-21T08:08:12;10.48;;;6.85;;
27539;SDS011;15906;52.046;4.724;2022-07-21T08:10:38;9.30;;;7.13;;
27539;SDS011;15906;52.046;4.724;2022-07-21T08:13:04;10.50;;;7.78;;
27539;SDS011;15906;52.046;4.724;2022-07-21T08:15:29;10.55;;;7.78;;
27539;SDS011;15906;52.046;4.724;2022-07-21T08:17:55;15.90;;;7.85;;
27539;SDS011;15906;52.046;4.724;2022-07-21T08:20:21;11.45;;;7.82;;
27539;SDS011;15906;52.046;4.724;2022-07-21T08:22:46;10.27;;;7.70;;
27539;SDS011;15906;52.046;4.724;2022-07-21T08:25:11;9.80;;;7.40;;
27539;SDS011;15906;52.046;4.724;2022-07-21T08:27:37;9.98;;;7.63;;
27539;SDS011;15906;52.046;4.724;2022-07-21T08:30:04;10.32;;;7.75;;
27539;SDS011;15906;52.046;4.724;2022-07-21T08:32:30;10.02;;;8.13;;
27539;SDS011;15906;52.046;4.724;2022-07-21T08:34:56;14.60;;;8.88;;
27539;SDS011;15906;52.046;4.724;2022-07-21T08:37:21;11.35;;;9.75;;
27539;SDS011;15906;52.046;4.724;2022-07-21T08:39:47;14.50;;;9.68;;
27539;SDS011;15906;52.046;4.724;2022-07-21T08:42:13;14.20;;;9.90;;
27539;SDS011;15906;52.046;4.724;2022-07-21T08:44:40;15.15;;;11.20;;
27539;SDS011;15906;52.046;4.724;2022-07-21T08:47:06;14.43;;;10.57;;
27539;SDS011;15906;52.046;4.724;2022-07-21T08:49:33;16.92;;;10.07;;
27539;SDS011;15906;52.046;4.724;2022-07-21T08:51:59;14.38;;;10.35;;
27539;SDS011;15906;52.046;4.724;2022-07-21T08:54:25;14.48;;;10.82;;
27539;SDS011;15906;52.046;4.724;2022-07-21T08:56:50;17.10;;;11.75;;
27539;SDS011;15906;52.046;4.724;2022-07-21T08:59:16;17.60;;;11.88;;
27539;SDS011;15906;52.046;4.724;2022-07-21T09:01:42;17.45;;;11.95;;
27539;SDS011;15906;52.046;4.724;2022-07-21T09:04:21;15.63;;;10.82;;
27539;SDS011;15906;52.046;4.724;2022-07-21T09:06:49;15.80;;;10.73;;
27539;SDS011;15906;52.046;4.724;2022-07-21T09:09:19;16.55;;;11.65;;
27539;SDS011;15906;52.046;4.724;2022-07-21T09:11:46;19.50;;;12.77;;
27539;SDS011;15906;52.046;4.724;2022-07-21T09:14:15;17.40;;;12.02;;
27539;SDS011;15906;52.046;4.724;2022-07-21T09:16:47;20.67;;;12.55;;
27539;SDS011;15906;52.046;4.724;2022-07-21T09:21:45;14.70;;;10.52;;
27539;SDS011;15906;52.046;4.724;2022-07-21T09:24:24;16.20;;;10.85;;
27539;SDS011;15906;52.046;4.724;2022-07-21T09:29:33;19.25;;;11.10;;
27539;SDS011;15906;52.046;4.724;2022-07-21T09:32:00;16.08;;;10.60;;
27539;SDS011;15906;52.046;4.724;2022-07-21T09:34:37;19.10;;;11.38;;
27539;SDS011;15906;52.046;4.724;2022-07-21T09:37:04;18.42;;;11.70;;
27539;SDS011;15906;52.046;4.724;2022-07-21T09:39:41;16.55;;;10.70;;
27539;SDS011;15906;52.046;4.724;2022-07-21T09:42:15;16.63;;;11.45;;
27539;SDS011;15906;52.046;4.724;2022-07-21T09:44:43;21.58;;;11.48;;
27539;SDS011;15906;52.046;4.724;2022-07-21T09:47:11;16.23;;;11.40;;
27539;SDS011;15906;52.046;4.724;2022-07-21T09:49:39;23.17;;;11.27;;
27539;SDS011;15906;52.046;4.724;2022-07-21T09:52:25;20.35;;;10.63;;
27539;SDS011;15906;52.046;4.724;2022-07-21T09:54:52;20.35;;;10.35;;
27539;SDS011;15906;52.046;4.724;2022-07-21T09:57:19;14.95;;;10.60;;
27539;SDS011;15906;52.046;4.724;2022-07-21T09:59:45;20.55;;;10.18;;
27539;SDS011;15906;52.046;4.724;2022-07-21T10:02:16;13.65;;;8.95;;
27539;SDS011;15906;52.046;4.724;2022-07-21T10:04:48;14.88;;;9.25;;
27539;SDS011;15906;52.046;4.724;2022-07-21T10:07:18;15.13;;;9.15;;
27539;SDS011;15906;52.046;4.724;2022-07-21T10:09:45;13.23;;;8.30;;
27539;SDS011;15906;52.046;4.724;2022-07-21T10:12:12;16.52;;;9.02;;
27539;SDS011;15906;52.046;4.724;2022-07-21T10:14:43;12.60;;;8.63;;
27539;SDS011;15906;52.046;4.724;2022-07-21T10:17:09;18.77;;;9.90;;
27539;SDS011;15906;52.046;4.724;2022-07-21T10:24:59;10.25;;;7.95;;
27539;SDS011;15906;52.046;4.724;2022-07-21T10:27:25;11.05;;;7.55;;
27539;SDS011;15906;52.046;4.724;2022-07-21T10:29:52;8.10;;;6.75;;
27539;SDS011;15906;52.046;4.724;2022-07-21T10:32:48;7.18;;;5.10;;
27539;SDS011;15906;52.046;4.724;2022-07-21T10:35:27;5.75;;;4.57;;
27539;SDS011;15906;52.046;4.724;2022-07-21T10:37:54;6.03;;;4.40;;
27539;SDS011;15906;52.046;4.724;2022-07-21T10:42:45;4.65;;;4.00;;
27539;SDS011;15906;52.046;4.724;2022-07-21T10:45:31;4.75;;;3.88;;
27539;SDS011;15906;52.046;4.724;2022-07-21T10:48:05;6.22;;;3.85;;
27539;SDS011;15906;52.046;4.724;2022-07-21T10:50:34;5.90;;;4.05;;
27539;SDS011;15906;52.046;4.724;2022-07-21T10:53:14;5.80;;;4.43;;
27539;SDS011;15906;52.046;4.724;2022-07-21T10:55:48;5.18;;;4.25;;
27539;SDS011;15906;52.046;4.724;2022-07-21T10:58:17;4.72;;;4.20;;
27539;SDS011;15906;52.046;4.724;2022-07-21T11:08:46;8.02;;;4.50;;
27539;SDS011;15906;52.046;4.724;2022-07-21T11:11:15;7.25;;;4.38;;
27539;SDS011;15906;52.046;4.724;2022-07-21T11:14:02;4.85;;;3.38;;
27539;SDS011;15906;52.046;4.724;2022-07-21T11:19:05;7.55;;;3.92;;
27539;SDS011;15906;52.046;4.724;2022-07-21T11:21:50;3.80;;;2.78;;
27539;SDS011;15906;52.046;4.724;2022-07-21T11:24:20;5.30;;;2.95;;
27539;SDS011;15906;52.046;4.724;2022-07-21T11:26:53;7.10;;;2.50;;
27539;SDS011;15906;52.046;4.724;2022-07-21T11:29:24;5.47;;;2.08;;
27539;SDS011;15906;52.046;4.724;2022-07-21T11:31:50;7.30;;;2.40;;
27539;SDS011;15906;52.046;4.724;2022-07-21T11:34:16;4.32;;;2.25;;
27539;SDS011;15906;52.046;4.724;2022-07-21T11:36:41;2.38;;;2.05;;
27539;SDS011;15906;52.046;4.724;2022-07-21T11:39:08;3.42;;;2.05;;
27539;SDS011;15906;52.046;4.724;2022-07-21T11:41:36;5.05;;;1.77;;
27539;SDS011;15906;52.046;4.724;2022-07-21T11:44:04;3.15;;;1.73;;
27539;SDS011;15906;52.046;4.724;2022-07-21T11:46:47;4.97;;;2.17;;
27539;SDS011;15906;52.046;4.724;2022-07-21T11:49:14;6.90;;;2.53;;
27539;SDS011;15906;52.046;4.724;2022-07-21T11:51:45;4.93;;;2.20;;
27539;SDS011;15906;52.046;4.724;2022-07-21T11:54:26;7.25;;;2.80;;
27539;SDS011;15906;52.046;4.724;2022-07-21T11:56:57;6.00;;;2.97;;
27539;SDS011;15906;52.046;4.724;2022-07-21T11:59:25;5.82;;;3.05;;
27539;SDS011;15906;52.046;4.724;2022-07-21T12:01:52;5.40;;;3.03;;
27539;SDS011;15906;52.046;4.724;2022-07-21T12:07:02;6.70;;;2.70;;
27539;SDS011;15906;52.046;4.724;2022-07-21T12:09:29;6.03;;;3.08;;
27539;SDS011;15906;52.046;4.724;2022-07-21T12:11:56;5.20;;;3.20;;
27539;SDS011;15906;52.046;4.724;2022-07-21T12:14:37;6.13;;;3.30;;
27539;SDS011;15906;52.046;4.724;2022-07-21T12:17:04;3.72;;;2.20;;
27539;SDS011;15906;52.046;4.724;2022-07-21T12:19:29;6.22;;;2.60;;
27539;SDS011;15906;52.046;4.724;2022-07-21T12:21:55;4.30;;;2.53;;
27539;SDS011;15906;52.046;4.724;2022-07-21T12:24:21;4.53;;;2.45;;
27539;SDS011;15906;52.046;4.724;2022-07-21T12:26:47;8.25;;;3.35;;
27539;SDS011;15906;52.046;4.724;2022-07-21T12:29:29;7.30;;;3.30;;
27539;SDS011;15906;52.046;4.724;2022-07-21T12:31:54;4.93;;;2.10;;
27539;SDS011;15906;52.046;4.724;2022-07-21T12:34:20;3.15;;;1.67;;
27539;SDS011;15906;52.046;4.724;2022-07-21T12:36:49;2.35;;;1.50;;
27539;SDS011;15906;52.046;4.724;2022-07-21T12:44:58;2.75;;;1.27;;
27539;SDS011;15906;52.046;4.724;2022-07-21T12:47:24;2.88;;;1.10;;
27539;SDS011;15906;52.046;4.724;2022-07-21T12:50:01;3.28;;;1.00;;
27539;SDS011;15906;52.046;4.724;2022-07-21T12:52:32;3.28;;;1.27;;
27539;SDS011;15906;52.046;4.724;2022-07-21T12:54:58;10.45;;;1.45;;
27539;SDS011;15906;52.046;4.724;2022-07-21T12:57:25;2.78;;;1.90;;
27539;SDS011;15906;52.046;4.724;2022-07-21T12:59:55;3.08;;;1.15;;
27539;SDS011;15906;52.046;4.724;2022-07-21T13:02:21;4.22;;;1.75;;
27539;SDS011;15906;52.046;4.724;2022-07-21T13:04:48;5.63;;;1.80;;
27539;SDS011;15906;52.046;4.724;2022-07-21T13:07:13;7.10;;;2.20;;
27539;SDS011;15906;52.046;4.724;2022-07-21T13:09:39;6.47;;;2.58;;
27539;SDS011;15906;52.046;4.724;2022-07-21T13:12:05;6.53;;;1.95;;
27539;SDS011;15906;52.046;4.724;2022-07-21T13:14:31;8.40;;;2.60;;
27539;SDS011;15906;52.046;4.724;2022-07-21T13:16:56;7.60;;;2.30;;
27539;SDS011;15906;52.046;4.724;2022-07-21T13:19:25;6.15;;;2.38;;
27539;SDS011;15906;52.046;4.724;2022-07-21T13:21:51;8.93;;;3.40;;
27539;SDS011;15906;52.046;4.724;2022-07-21T13:24:18;12.60;;;2.90;;
27539;SDS011;15906;52.046;4.724;2022-07-21T13:26:44;10.38;;;2.95;;
27539;SDS011;15906;52.046;4.724;2022-07-21T13:29:09;10.25;;;3.05;;
27539;SDS011;15906;52.046;4.724;2022-07-21T13:31:35;10.30;;;3.42;;
27539;SDS011;15906;52.046;4.724;2022-07-21T13:34:04;11.05;;;3.00;;
27539;SDS011;15906;52.046;4.724;2022-07-21T13:36:32;12.45;;;3.78;;
27539;SDS011;15906;52.046;4.724;2022-07-21T13:38:58;11.38;;;2.88;;
27539;SDS011;15906;52.046;4.724;2022-07-21T13:41:24;18.17;;;4.13;;
27539;SDS011;15906;52.046;4.724;2022-07-21T13:43:50;11.82;;;3.22;;
27539;SDS011;15906;52.046;4.724;2022-07-21T13:46:16;8.85;;;3.38;;
27539;SDS011;15906;52.046;4.724;2022-07-21T13:48:42;13.80;;;2.88;;
27539;SDS011;15906;52.046;4.724;2022-07-21T13:51:10;10.32;;;3.00;;
27539;SDS011;15906;52.046;4.724;2022-07-21T13:53:36;13.50;;;2.97;;
27539;SDS011;15906;52.046;4.724;2022-07-21T13:56:03;18.35;;;3.28;;
27539;SDS011;15906;52.046;4.724;2022-07-21T13:58:29;14.27;;;2.53;;
27539;SDS011;15906;52.046;4.724;2022-07-21T14:00:55;12.40;;;3.33;;
27539;SDS011;15906;52.046;4.724;2022-07-21T14:03:20;14.15;;;2.53;;
27539;SDS011;15906;52.046;4.724;2022-07-21T14:05:46;13.82;;;2.88;;
27539;SDS011;15906;52.046;4.724;2022-07-21T14:08:11;13.90;;;2.75;;
27539;SDS011;15906;52.046;4.724;2022-07-21T14:10:37;13.10;;;2.30;;
27539;SDS011;15906;52.046;4.724;2022-07-21T14:13:02;11.95;;;2.60;;
27539;SDS011;15906;52.046;4.724;2022-07-21T14:15:29;15.00;;;2.35;;
27539;SDS011;15906;52.046;4.724;2022-07-21T14:17:55;9.02;;;2.33;;
27539;SDS011;15906;52.046;4.724;2022-07-21T14:20:20;12.52;;;2.78;;
27539;SDS011;15906;52.046;4.724;2022-07-21T14:22:46;14.18;;;2.15;;
27539;SDS011;15906;52.046;4.724;2022-07-21T14:25:11;6.95;;;1.88;;
27539;SDS011;15906;52.046;4.724;2022-07-21T14:27:43;11.23;;;1.98;;
27539;SDS011;15906;52.046;4.724;2022-07-21T14:30:09;11.70;;;1.90;;
27539;SDS011;15906;52.046;4.724;2022-07-21T14:32:34;4.68;;;1.60;;
27539;SDS011;15906;52.046;4.724;2022-07-21T14:35:00;6.10;;;2.63;;
27539;SDS011;15906;52.046;4.724;2022-07-21T14:37:26;8.57;;;1.77;;
27539;SDS011;15906;52.046;4.724;2022-07-21T14:39:51;5.70;;;1.83;;
27539;SDS011;15906;52.046;4.724;2022-07-21T14:42:17;8.63;;;1.77;;
27539;SDS011;15906;52.046;4.724;2022-07-21T14:44:43;9.55;;;1.73;;
27539;SDS011;15906;52.046;4.724;2022-07-21T14:47:10;6.55;;;1.50;;
27539;SDS011;15906;52.046;4.724;2022-07-21T14:49:36;9.52;;;1.98;;
27539;SDS011;15906;52.046;4.724;2022-07-21T14:52:02;8.30;;;1.40;;
27539;SDS011;15906;52.046;4.724;2022-07-21T14:54:28;5.13;;;1.48;;
27539;SDS011;15906;52.046;4.724;2022-07-21T14:56:54;4.35;;;1.33;;
27539;SDS011;15906;52.046;4.724;2022-07-21T14:59:20;8.38;;;1.83;;
27539;SDS011;15906;52.046;4.724;2022-07-21T15:01:45;8.57;;;1.80;;
27539;SDS011;15906;52.046;4.724;2022-07-21T15:04:11;7.00;;;1.80;;
27539;SDS011;15906;52.046;4.724;2022-07-21T15:06:37;17.60;;;2.70;;
27539;SDS011;15906;52.046;4.724;2022-07-21T15:09:03;11.25;;;3.30;;
27539;SDS011;15906;52.046;4.724;2022-07-21T15:11:29;13.02;;;2.58;;
27539;SDS011;15906;52.046;4.724;2022-07-21T15:13:55;11.65;;;2.72;;
27539;SDS011;15906;52.046;4.724;2022-07-21T15:16:20;9.15;;;1.95;;
27539;SDS011;15906;52.046;4.724;2022-07-21T15:18:46;9.63;;;2.25;;
27539;SDS011;15906;52.046;4.724;2022-07-21T15:21:11;12.93;;;2.30;;